createdAt,value
2022-08-16T00:02:33.692Z,24.23
2022-08-16T00:05:02.494Z,24.22
2022-08-16T00:07:30.896Z,24.24
2022-08-16T00:10:00.540Z,24.23
2022-08-16T00:12:30.310Z,24.13
2022-08-16T00:15:01.191Z,24.11
2022-08-16T00:17:29.435Z,24.02
2022-08-16T00:20:20.946Z,23.97
2022-08-16T00:22:49.176Z,23.98
2022-08-16T00:26:33.582Z,24.00
2022-08-16T00:28:13.249Z,24.10
2022-08-16T00:30:41.239Z,24.14
2022-08-16T00:33:10.167Z,24.11
2022-08-16T00:35:39.336Z,24.07
2022-08-16T00:38:40.619Z,24.04
2022-08-16T00:40:57.548Z,24.03
2022-08-16T00:43:42.503Z,24.03
2022-08-16T00:46:34.156Z,24.04
2022-08-16T00:49:07.087Z,23.99
2022-08-16T00:51:46.768Z,24.00
2022-08-16T00:54:25.937Z,23.88
2022-08-16T00:57:02.418Z,23.90
2022-08-16T00:59:37.857Z,23.89
2022-08-16T01:02:30.509Z,23.84
2022-08-16T01:05:10.325Z,23.84
2022-08-16T01:07:51.323Z,23.84
2022-08-16T01:10:31.967Z,23.80
2022-08-16T01:13:12.027Z,23.78
2022-08-16T01:15:47.621Z,23.79
2022-08-16T01:18:40.678Z,23.74
2022-08-16T01:21:25.294Z,23.67
2022-08-16T01:24:52.370Z,23.67
2022-08-16T01:27:15.110Z,23.59
2022-08-16T01:29:58.136Z,23.65
2022-08-16T01:32:33.442Z,23.62
2022-08-16T01:35:16.979Z,23.62
2022-08-16T01:37:54.003Z,23.64
2022-08-16T01:40:28.822Z,23.62
2022-08-16T01:42:57.786Z,23.66
2022-08-16T01:45:39.678Z,23.68
2022-08-16T01:48:19.520Z,23.65
2022-08-16T01:51:09.204Z,23.59
2022-08-16T01:53:42.012Z,23.59
2022-08-16T01:56:29.594Z,23.56
2022-08-16T01:59:05.091Z,23.55
2022-08-16T02:01:34.701Z,23.54
2022-08-16T02:04:11.122Z,23.54
2022-08-16T02:06:46.765Z,23.49
2022-08-16T02:09:25.489Z,23.46
2022-08-16T02:12:50.187Z,23.49
2022-08-16T02:14:56.275Z,23.51
2022-08-16T02:17:25.578Z,23.51
2022-08-16T02:19:59.454Z,23.49
2022-08-16T02:22:34.908Z,23.42
2022-08-16T02:25:14.718Z,23.33
2022-08-16T02:27:50.837Z,23.29
2022-08-16T02:30:35.824Z,23.31
2022-08-16T02:33:12.873Z,23.41
2022-08-16T02:35:54.499Z,23.37
2022-08-16T02:38:31.470Z,23.34
2022-08-16T02:41:02.397Z,23.33
2022-08-16T02:43:38.042Z,23.38
2022-08-16T02:46:09.601Z,23.41
2022-08-16T02:48:39.580Z,23.34
2022-08-16T02:51:18.509Z,23.21
2022-08-16T02:53:52.303Z,23.11
2022-08-16T02:56:22.101Z,23.03
2022-08-16T02:58:53.432Z,22.96
2022-08-16T03:01:33.775Z,22.85
2022-08-16T03:04:49.915Z,22.76
2022-08-16T03:07:14.413Z,22.69
2022-08-16T03:09:46.092Z,22.63
2022-08-16T03:12:19.305Z,22.68
2022-08-16T03:14:49.747Z,22.72
2022-08-16T03:17:23.381Z,22.75
2022-08-16T03:20:04.142Z,22.78
2022-08-16T03:22:37.410Z,22.78
2022-08-16T03:25:16.035Z,22.70
2022-08-16T03:27:53.648Z,22.66
2022-08-16T03:30:29.177Z,22.75
2022-08-16T03:33:05.462Z,22.76
2022-08-16T03:35:42.047Z,22.79
2022-08-16T03:38:33.110Z,22.80
2022-08-16T03:41:25.374Z,22.84
2022-08-16T03:43:59.750Z,22.85
2022-08-16T03:46:44.961Z,22.80
2022-08-16T03:49:22.615Z,22.84
2022-08-16T03:51:56.552Z,22.81
2022-08-16T03:54:30.326Z,22.81
2022-08-16T03:56:59.041Z,22.80
2022-08-16T03:59:31.379Z,22.83
2022-08-16T04:02:12.159Z,22.85
2022-08-16T04:04:54.867Z,22.86
2022-08-16T04:07:25.117Z,22.86
2022-08-16T04:10:36.088Z,22.84
2022-08-16T04:12:54.626Z,22.84
2022-08-16T04:15:30.174Z,22.81
2022-08-16T04:18:13.133Z,22.71
2022-08-16T04:20:43.148Z,22.63
2022-08-16T04:23:11.161Z,22.62
2022-08-16T04:25:42.178Z,22.60
2022-08-16T04:28:54.319Z,22.58
2022-08-16T04:31:04.115Z,22.50
2022-08-16T04:33:51.282Z,22.49
2022-08-16T04:36:22.090Z,22.47
2022-08-16T04:38:50.251Z,22.42
2022-08-16T04:41:32.388Z,22.42
2022-08-16T04:44:02.858Z,22.33
2022-08-16T04:47:00.834Z,22.34
2022-08-16T04:49:43.751Z,22.30
2022-08-16T04:52:33.174Z,22.26
2022-08-16T04:55:07.395Z,22.30
2022-08-16T04:57:38.339Z,22.31
2022-08-16T05:00:32.512Z,22.30
2022-08-16T05:03:07.524Z,22.29
2022-08-16T05:05:58.974Z,22.32
2022-08-16T05:08:30.991Z,22.32
2022-08-16T05:11:10.339Z,22.32
2022-08-16T05:13:42.814Z,22.33
2022-08-16T05:16:21.670Z,22.40
2022-08-16T05:18:58.350Z,22.48
2022-08-16T05:21:37.994Z,22.57
2022-08-16T05:24:08.986Z,22.69
2022-08-16T05:26:40.905Z,22.82
2022-08-16T05:29:15.203Z,22.89
2022-08-16T05:31:54.199Z,22.88
2022-08-16T05:34:23.115Z,22.95
2022-08-16T05:37:00.756Z,22.90
2022-08-16T05:39:40.806Z,23.00
2022-08-16T05:42:09.873Z,22.99
2022-08-16T05:44:40.028Z,23.04
2022-08-16T05:47:15.320Z,23.01
2022-08-16T05:49:45.581Z,22.93
2022-08-16T05:52:23.336Z,22.92
2022-08-16T05:55:01.220Z,22.96
2022-08-16T05:57:34.419Z,22.99
2022-08-16T06:00:11.932Z,23.05
2022-08-16T06:02:46.345Z,23.25
2022-08-16T06:05:52.325Z,23.47
2022-08-16T06:08:31.708Z,23.62
2022-08-16T06:11:11.111Z,23.85
2022-08-16T06:13:47.323Z,24.07
2022-08-16T06:16:20.355Z,24.31
2022-08-16T06:18:52.669Z,24.49
2022-08-16T06:21:23.679Z,24.75
2022-08-16T06:24:01.464Z,24.96
2022-08-16T06:26:57.952Z,25.19
2022-08-16T06:29:30.790Z,25.26
2022-08-16T06:32:00.565Z,25.59
2022-08-16T06:34:31.691Z,25.76
2022-08-16T06:37:18.779Z,25.74
2022-08-16T06:39:50.009Z,25.72
2022-08-16T06:42:39.536Z,25.97
2022-08-16T06:45:43.354Z,26.31
2022-08-16T06:48:21.201Z,26.35
2022-08-16T06:51:03.451Z,26.53
2022-08-16T06:53:35.529Z,26.48
2022-08-16T06:56:14.728Z,26.62
2022-08-16T06:59:20.437Z,26.95
2022-08-16T07:01:58.051Z,26.99
2022-08-16T07:04:32.815Z,27.25
2022-08-16T07:07:14.537Z,27.45
2022-08-16T07:09:44.143Z,27.67
2022-08-16T07:12:15.360Z,27.54
2022-08-16T07:14:47.738Z,27.70
2022-08-16T07:17:21.579Z,27.84
2022-08-16T07:20:29.500Z,28.31
2022-08-16T07:22:52.552Z,28.71
2022-08-16T07:25:25.840Z,29.04
2022-08-16T07:27:55.049Z,29.34
2022-08-16T07:30:45.248Z,29.52
2022-08-16T07:33:53.601Z,29.74
2022-08-16T07:36:21.889Z,29.90
2022-08-16T07:38:52.141Z,30.15
2022-08-16T07:41:20.777Z,30.19
2022-08-16T07:43:55.496Z,29.92
2022-08-16T07:46:38.667Z,29.64
2022-08-16T07:49:18.157Z,29.51
2022-08-16T07:51:47.793Z,29.52
2022-08-16T07:54:21.116Z,30.01
2022-08-16T07:56:54.159Z,30.37
2022-08-16T07:59:25.957Z,30.63
2022-08-16T08:02:12.113Z,30.54
2022-08-16T08:04:41.208Z,30.75
2022-08-16T08:07:09.893Z,31.24
2022-08-16T08:09:43.432Z,31.75
2022-08-16T08:12:31.375Z,32.13
2022-08-16T08:15:05.857Z,32.72
2022-08-16T08:17:42.116Z,32.71
2022-08-16T08:20:33.721Z,33.24
2022-08-16T08:23:02.926Z,33.38
2022-08-16T08:25:54.972Z,33.61
2022-08-16T08:28:26.678Z,33.86
2022-08-16T08:31:03.619Z,34.03
2022-08-16T08:33:37.745Z,34.28
2022-08-16T08:36:22.150Z,34.36
2022-08-16T08:38:53.356Z,34.35
2022-08-16T08:41:28.721Z,34.53
2022-08-16T08:43:58.913Z,34.18
2022-08-16T08:46:35.578Z,34.74
2022-08-16T08:49:07.842Z,34.74
2022-08-16T08:51:41.846Z,34.84
2022-08-16T08:54:18.660Z,34.96
2022-08-16T08:56:52.315Z,35.06
2022-08-16T08:59:34.834Z,34.48
2022-08-16T09:02:13.029Z,35.06
2022-08-16T09:04:47.825Z,35.36
2022-08-16T09:07:54.722Z,35.74
2022-08-16T09:10:34.450Z,35.86
2022-08-16T09:13:10.980Z,36.24
2022-08-16T09:15:49.197Z,36.48
2022-08-16T09:18:26.439Z,36.15
2022-08-16T09:20:59.048Z,36.65
2022-08-16T09:23:36.486Z,36.36
2022-08-16T09:26:44.540Z,36.04
2022-08-16T09:29:14.835Z,36.54
2022-08-16T09:31:47.137Z,36.35
2022-08-16T09:34:23.202Z,35.90
2022-08-16T09:36:53.968Z,35.69
2022-08-16T09:39:22.631Z,35.60
2022-08-16T09:41:53.270Z,35.72
2022-08-16T09:45:11.504Z,35.57
2022-08-16T09:47:12.425Z,35.21
2022-08-16T09:49:41.675Z,35.90
2022-08-16T09:52:11.172Z,35.73
2022-08-16T09:54:44.562Z,35.66
2022-08-16T09:57:13.732Z,36.12
2022-08-16T09:59:42.391Z,36.12
2022-08-16T10:02:22.915Z,36.30
2022-08-16T10:04:58.597Z,36.36
2022-08-16T10:07:56.013Z,36.54
2022-08-16T10:10:18.987Z,37.43
2022-08-16T10:13:16.314Z,36.88
2022-08-16T10:15:55.201Z,36.52
2022-08-16T10:19:00.841Z,35.89
2022-08-16T10:21:17.650Z,36.46
2022-08-16T10:23:48.892Z,36.40
2022-08-16T10:27:20.517Z,36.76
2022-08-16T10:29:06.091Z,36.72
2022-08-16T10:31:43.428Z,37.45
2022-08-16T10:34:30.748Z,37.90
2022-08-16T10:37:03.391Z,37.65
2022-08-16T10:39:40.929Z,37.79
2022-08-16T10:42:10.436Z,37.85
2022-08-16T10:44:42.684Z,37.48
2022-08-16T10:47:22.372Z,37.78
2022-08-16T10:49:50.616Z,37.64
2022-08-16T10:52:20.221Z,38.52
2022-08-16T10:57:36.885Z,38.58
2022-08-16T11:00:21.071Z,38.74
2022-08-16T11:02:58.565Z,38.68
2022-08-16T11:05:58.998Z,37.72
2022-08-16T11:08:31.297Z,38.29
2022-08-16T11:11:18.370Z,38.06
2022-08-16T11:14:10.908Z,38.91
2022-08-16T11:19:25.945Z,38.30
2022-08-16T11:22:23.043Z,37.29
2022-08-16T11:25:11.471Z,37.37
2022-08-16T11:27:37.352Z,36.69
2022-08-16T11:30:12.120Z,36.13
2022-08-16T11:32:44.163Z,36.02
2022-08-16T11:35:19.047Z,35.94
2022-08-16T11:38:46.775Z,36.83
2022-08-16T11:41:01.819Z,37.40
2022-08-16T11:43:34.752Z,38.27
2022-08-16T11:46:27.864Z,38.02
2022-08-16T11:48:58.322Z,37.64
2022-08-16T11:51:26.236Z,37.74
2022-08-16T11:53:54.542Z,37.54
2022-08-16T11:56:51.607Z,37.11
2022-08-16T11:59:13.146Z,36.10
2022-08-16T12:01:44.221Z,35.43
2022-08-16T12:04:28.341Z,35.02
2022-08-16T12:06:57.281Z,34.70
2022-08-16T12:09:29.340Z,34.43
2022-08-16T12:12:02.652Z,34.73
2022-08-16T12:14:35.283Z,34.94
2022-08-16T12:17:08.760Z,34.77
2022-08-16T12:19:37.150Z,34.92
2022-08-16T12:22:18.898Z,35.41
2022-08-16T12:24:51.149Z,36.31
2022-08-16T12:27:25.375Z,37.16
2022-08-16T12:29:54.892Z,37.67
2022-08-16T12:32:39.561Z,37.42
2022-08-16T12:35:18.374Z,37.80
2022-08-16T12:37:55.479Z,38.04
2022-08-16T12:40:32.407Z,38.32
2022-08-16T12:43:07.877Z,38.40
2022-08-16T12:45:48.803Z,38.65
2022-08-16T12:48:39.517Z,39.19
2022-08-16T12:51:22.232Z,39.69
2022-08-16T12:53:56.111Z,39.85
2022-08-16T12:56:33.374Z,39.86
2022-08-16T12:59:12.601Z,39.51
2022-08-16T13:01:50.461Z,39.24
2022-08-16T13:04:20.483Z,39.06
2022-08-16T13:06:50.207Z,38.79
2022-08-16T13:09:26.866Z,38.64
2022-08-16T13:12:03.266Z,37.95
2022-08-16T13:14:38.557Z,37.56
2022-08-16T13:17:18.775Z,36.83
2022-08-16T13:20:09.274Z,36.27
2022-08-16T13:22:44.246Z,35.67
2022-08-16T13:25:21.126Z,36.54
2022-08-16T13:28:01.816Z,36.18
2022-08-16T13:30:44.900Z,35.26
2022-08-16T13:33:26.011Z,34.55
2022-08-16T13:35:59.596Z,34.99
2022-08-16T13:38:37.066Z,35.30
2022-08-16T13:41:10.933Z,35.39
2022-08-16T13:43:40.163Z,35.20
2022-08-16T13:46:10.905Z,34.66
2022-08-16T13:48:44.214Z,34.39
2022-08-16T13:51:18.069Z,34.10
2022-08-16T13:53:54.608Z,34.20
2022-08-16T13:56:37.033Z,34.17
2022-08-16T13:59:14.422Z,34.20
2022-08-16T14:01:55.284Z,34.61
2022-08-16T14:04:30.027Z,34.74
2022-08-16T14:07:01.480Z,34.50
2022-08-16T14:09:33.830Z,34.10
2022-08-16T14:12:17.786Z,33.83
2022-08-16T14:14:46.805Z,33.34
2022-08-16T14:17:18.741Z,33.50
2022-08-16T14:19:48.761Z,33.63
2022-08-16T14:22:30.327Z,33.60
2022-08-16T14:25:03.308Z,33.91
2022-08-16T14:27:38.917Z,34.26
2022-08-16T14:30:15.469Z,34.75
2022-08-16T14:32:50.969Z,34.71
2022-08-16T14:35:36.267Z,34.77
2022-08-16T14:38:11.080Z,34.59
2022-08-16T14:40:52.684Z,34.13
2022-08-16T14:43:25.706Z,33.95
2022-08-16T14:45:58.108Z,34.17
2022-08-16T14:48:27.517Z,34.64
2022-08-16T14:50:56.062Z,35.05
2022-08-16T14:53:26.390Z,35.45
2022-08-16T14:55:55.067Z,35.64
2022-08-16T14:58:34.954Z,35.57
2022-08-16T15:01:05.635Z,36.02
2022-08-16T15:03:37.557Z,36.30
2022-08-16T15:06:08.439Z,36.60
2022-08-16T15:08:40.952Z,37.26
2022-08-16T15:11:09.525Z,37.69
2022-08-16T15:13:37.395Z,37.57
2022-08-16T15:16:07.454Z,37.00
2022-08-16T15:18:36.831Z,37.25
2022-08-16T15:21:08.667Z,37.07
2022-08-16T15:23:40.382Z,37.03
2022-08-16T15:26:09.419Z,36.89
2022-08-16T15:28:38.377Z,36.83
2022-08-16T15:31:10.349Z,36.93
2022-08-16T15:33:50.122Z,36.75
2022-08-16T15:36:21.113Z,36.28
2022-08-16T15:38:56.257Z,36.01
2022-08-16T15:42:01.534Z,35.72
2022-08-16T15:44:38.915Z,35.71
2022-08-16T15:47:25.663Z,35.77
2022-08-16T15:49:56.324Z,36.22
2022-08-16T15:52:30.356Z,36.17
2022-08-16T15:55:12.634Z,36.03
2022-08-16T15:57:49.939Z,35.96
2022-08-16T16:00:20.665Z,35.80
2022-08-16T16:02:49.633Z,35.72
2022-08-16T16:05:19.777Z,35.95
2022-08-16T16:07:56.617Z,35.36
2022-08-16T16:10:37.411Z,35.51
2022-08-16T16:13:09.512Z,35.39
2022-08-16T16:15:41.123Z,35.13
2022-08-16T16:18:11.945Z,35.27
2022-08-16T16:20:47.401Z,35.36
2022-08-16T16:23:20.964Z,35.27
2022-08-16T16:25:53.063Z,35.19
2022-08-16T16:29:06.195Z,35.15
2022-08-16T16:31:19.065Z,34.66
2022-08-16T16:33:56.019Z,34.33
2022-08-16T16:36:28.742Z,34.28
2022-08-16T16:38:58.025Z,33.84
2022-08-16T16:41:28.097Z,33.85
2022-08-16T16:43:57.500Z,33.80
2022-08-16T16:46:42.846Z,34.04
2022-08-16T16:49:14.613Z,33.91
2022-08-16T16:51:47.120Z,33.56
2022-08-16T16:54:27.734Z,33.39
2022-08-16T16:56:58.217Z,33.07
2022-08-16T16:59:28.079Z,33.02
2022-08-16T17:02:39.303Z,32.88
2022-08-16T17:04:47.532Z,32.79
2022-08-16T17:07:17.656Z,32.76
2022-08-16T17:09:52.322Z,32.53
2022-08-16T17:12:25.260Z,32.43
2022-08-16T17:15:12.124Z,32.27
2022-08-16T17:18:00.288Z,32.35
2022-08-16T17:20:29.948Z,32.05
2022-08-16T17:23:00.084Z,31.88
2022-08-16T17:25:36.411Z,31.79
2022-08-16T17:28:57.813Z,31.76
2022-08-16T17:30:54.177Z,31.68
2022-08-16T17:33:22.962Z,31.68
2022-08-16T17:35:55.262Z,31.57
2022-08-16T17:38:38.987Z,31.43
2022-08-16T17:41:13.726Z,31.28
2022-08-16T17:43:44.904Z,31.33
2022-08-16T17:46:50.831Z,31.31
2022-08-16T17:49:03.813Z,31.26
2022-08-16T17:51:34.020Z,31.30
2022-08-16T17:54:03.439Z,31.04
2022-08-16T17:56:31.744Z,30.96
2022-08-16T17:58:59.605Z,30.92
2022-08-16T18:01:29.122Z,30.84
2022-08-16T18:04:07.205Z,30.76
2022-08-16T18:06:39.450Z,30.70
2022-08-16T18:09:10.420Z,30.63
2022-08-16T18:11:40.680Z,30.53
2022-08-16T18:14:11.399Z,30.60
2022-08-16T18:16:41.215Z,30.54
2022-08-16T18:19:10.599Z,30.45
2022-08-16T18:21:57.234Z,30.32
2022-08-16T18:24:29.439Z,30.35
2022-08-16T18:27:10.262Z,30.29
2022-08-16T18:29:47.843Z,30.23
2022-08-16T18:32:21.987Z,30.16
2022-08-16T18:34:54.531Z,29.97
2022-08-16T18:37:23.773Z,29.85
2022-08-16T18:39:53.190Z,29.79
2022-08-16T18:42:21.331Z,29.53
2022-08-16T18:44:49.293Z,29.36
2022-08-16T18:47:17.228Z,29.24
2022-08-16T18:49:45.370Z,29.16
2022-08-16T18:52:25.110Z,29.12
2022-08-16T18:55:02.098Z,29.06
2022-08-16T18:57:31.124Z,29.01
2022-08-16T18:59:58.986Z,28.88
2022-08-16T19:02:57.163Z,28.71
2022-08-16T19:05:22.924Z,28.57
2022-08-16T19:07:51.444Z,28.51
2022-08-16T19:10:21.446Z,28.45
2022-08-16T19:12:49.575Z,28.41
2022-08-16T19:15:23.415Z,28.40
2022-08-16T19:17:52.540Z,28.33
2022-08-16T19:20:24.367Z,28.32
2022-08-16T19:23:05.114Z,28.29
2022-08-16T19:25:48.792Z,28.27
2022-08-16T19:28:51.273Z,28.18
2022-08-16T19:31:19.079Z,28.04
2022-08-16T19:33:54.864Z,28.02
2022-08-16T19:36:31.413Z,27.95
2022-08-16T19:39:04.980Z,27.87
2022-08-16T19:41:38.415Z,27.75
2022-08-16T19:44:07.783Z,27.67
2022-08-16T19:46:37.863Z,27.56
2022-08-16T19:49:06.841Z,27.50
2022-08-16T19:51:37.596Z,27.47
2022-08-16T19:54:05.880Z,27.49
2022-08-16T19:56:35.201Z,27.52
2022-08-16T19:59:21.044Z,27.52
2022-08-16T20:01:51.880Z,27.62
2022-08-16T20:04:22.584Z,27.67
2022-08-16T20:06:52.409Z,27.63
2022-08-16T20:09:21.991Z,27.65
2022-08-16T20:11:54.988Z,27.64
2022-08-16T20:14:25.543Z,27.63
2022-08-16T20:16:57.028Z,27.60
2022-08-16T20:19:27.297Z,27.61
2022-08-16T20:21:56.813Z,27.59
2022-08-16T20:24:35.516Z,27.50
2022-08-16T20:27:09.502Z,27.46
2022-08-16T20:29:41.222Z,27.40
2022-08-16T20:32:14.250Z,27.38
2022-08-16T20:34:44.905Z,27.32
2022-08-16T20:37:15.665Z,27.27
2022-08-16T20:39:44.860Z,27.25
2022-08-16T20:42:19.056Z,27.16
2022-08-16T20:44:46.988Z,27.02
2022-08-16T20:47:15.438Z,27.01
2022-08-16T20:49:43.384Z,26.96
2022-08-16T20:52:15.609Z,26.92
2022-08-16T20:54:44.883Z,26.89
2022-08-16T20:57:16.350Z,26.89
2022-08-16T20:59:49.869Z,26.84
2022-08-16T21:02:25.150Z,26.80
2022-08-16T21:04:54.486Z,26.76
2022-08-16T21:07:22.822Z,26.71
2022-08-16T21:09:50.659Z,26.65
2022-08-16T21:12:19.947Z,26.63
2022-08-16T21:14:48.150Z,26.63
2022-08-16T21:17:16.513Z,26.63
2022-08-16T21:19:45.050Z,26.65
2022-08-16T21:22:16.826Z,26.63
2022-08-16T21:24:46.619Z,26.55
2022-08-16T21:27:14.949Z,26.54
2022-08-16T21:29:46.901Z,26.51
2022-08-16T21:32:19.722Z,26.51
2022-08-16T21:35:11.337Z,26.50
2022-08-16T21:37:40.882Z,26.44
2022-08-16T21:40:12.121Z,26.43
2022-08-16T21:42:42.540Z,26.39
2022-08-16T21:45:14.388Z,26.36
2022-08-16T21:47:43.501Z,26.31
2022-08-16T21:50:13.643Z,26.27
2022-08-16T21:52:41.480Z,26.16
2022-08-16T21:55:11.696Z,26.13
2022-08-16T21:57:39.666Z,26.11
2022-08-16T22:00:14.529Z,26.06
2022-08-16T22:02:42.554Z,25.94
2022-08-16T22:05:10.824Z,25.92
2022-08-16T22:07:38.795Z,25.88
2022-08-16T22:11:05.113Z,25.87
2022-08-16T22:12:56.730Z,25.84
2022-08-16T22:15:26.177Z,25.81
2022-08-16T22:17:57.250Z,25.81
2022-08-16T22:20:27.633Z,25.76
2022-08-16T22:23:07.850Z,25.72
2022-08-16T22:25:37.747Z,25.67
2022-08-16T22:28:06.183Z,25.64
2022-08-16T22:30:35.779Z,25.66
2022-08-16T22:33:10.217Z,25.61
2022-08-16T22:35:47.346Z,25.58
2022-08-16T22:38:53.824Z,25.54
2022-08-16T22:41:05.125Z,25.45
2022-08-16T22:43:33.276Z,25.42
2022-08-16T22:46:02.948Z,25.41
2022-08-16T22:48:32.090Z,25.39
2022-08-16T22:51:07.509Z,25.40
2022-08-16T22:53:37.341Z,25.35
2022-08-16T22:56:06.040Z,25.28
2022-08-16T22:58:37.081Z,25.25
2022-08-16T23:01:10.198Z,25.25
2022-08-16T23:03:39.181Z,25.23
2022-08-16T23:06:08.923Z,25.23
2022-08-16T23:08:40.905Z,25.21
2022-08-16T23:11:14.327Z,25.20
2022-08-16T23:13:53.266Z,25.16
2022-08-16T23:16:33.588Z,25.15
2022-08-16T23:19:04.148Z,25.09
2022-08-16T23:21:32.779Z,25.08
2022-08-16T23:24:01.710Z,25.06
2022-08-16T23:26:43.914Z,25.09
2022-08-16T23:29:24.272Z,25.02
2022-08-16T23:31:58.682Z,25.04
2022-08-16T23:34:28.747Z,24.96
2022-08-16T23:36:57.693Z,24.95
2022-08-16T23:39:25.841Z,24.85
2022-08-16T23:41:53.804Z,24.80
2022-08-16T23:44:56.518Z,24.78
2022-08-16T23:47:11.729Z,24.75
2022-08-16T23:49:56.135Z,24.71
2022-08-16T23:52:54.739Z,24.68
2022-08-16T23:55:17.389Z,24.63
2022-08-16T23:57:46.257Z,24.59
